Weather observations for the past three days for
Rutherfordton, Rutherford County-Marchman Field Airport
Metric (Imperial)
Date Time (edt) Wind (kph) Vis. (km) Weather Sky Cond. Temperature (ºC) Relative Humidity Wind Chill (°C) Heat Index (°C) Pressure Precipitation (cm)
Air Dwpt 6 hour altimeter (cm) sea level (mb) 1 hr 3 hr 6 hr
Max. Min.
02 18:15 N 9 16.09 Overcast BKN080 OVC090 16 -1 31% 75.95 0.0
02 17:55 N 9 16.09 Overcast SCT060 SCT070 OVC090 17 0 32% 75.92 0.0
02 17:35 Calm 16.09 Mostly Cloudy SCT070 BKN080 18 2 34% 75.9 0.0
02 17:15 Calm 16.09 Mostly Cloudy BKN090 17 2 37% 75.87 0.0
02 16:35 SW 7 16.09 Partly Cloudy SCT090 17 5 45% 75.9 0.0
02 16:15 W 6 16.09 Mostly Cloudy BKN090 16 4 45% 75.92 0.0
02 15:55 W 7 16.09 Partly Cloudy SCT090 17 3 39% 75.92 0.0
02 15:35 W 11 16.09 Fair CLR 17 3 39% 75.92 0.0
02 15:15 W 9 16.09 Fair CLR 17 3 39% 75.95 0.0
02 14:35 Calm 16.09 Mostly Cloudy BKN070 17 2 37% 75.97 0.0
02 14:15 W 7 16.09 Mostly Cloudy BKN060 17 3 39% 76 0.0
02 13:55 Calm 16.09 Overcast BKN039 OVC060 16 5 48% 76.02 0.0
02 13:35 N 6 16.09 Overcast OVC039 15 5 51% 76.02 0.0
02 13:15 N 9 16.09 Overcast OVC039 16 5 48% 76.02 0.0
02 12:55 Calm 16.09 Overcast BKN037 BKN046 OVC085 15 6 55% 76.05 0.0
02 12:35 E 9 16.09 Overcast BKN039 OVC048 14 6 59% 76.07 0.0
02 12:15 NE 6 16.09 Overcast OVC039 13 5 59% 76.1 0.0
02 11:55 Calm 16.09 Overcast OVC039 13 5 59% 76.1 0.0
02 11:35 NE 6 16.09 Overcast OVC039 13 5 59% 76.1 0.0
02 11:15 NE 7 16.09 Overcast OVC041 13 5 59% 76.1 0.0
02 10:55 NE 6 16.09 Overcast OVC045 13 6 63% 76.1 0.0
02 10:35 NE 7 16.09 Overcast OVC047 13 5 59% 76.1 0.0
02 10:15 N 7 16.09 Overcast BKN047 OVC060 13 5 59% 76.1 0.0
02 09:55 N 6 16.09 Overcast SCT047 OVC060 13 5 59% 76.07 0.0
02 09:35 N 7 16.09 Overcast OVC060 13 5 59% 76.07 0.0
02 08:55 N 7 16.09 Overcast SCT049 OVC060 13 6 63% 76.07 0.0
02 08:35 N 6 16.09 Overcast SCT049 BKN060 OVC075 12 5 63% 76.05 0.0
02 08:15 N 9 16.09 Overcast OVC060 12 6 67% 76.05 0.0
02 07:55 N 6 16.09 Overcast OVC060 13 6 63% 76.05 0.0
02 07:35 N 11 16.09 Overcast OVC060 13 6 63% 75.97 0.0
02 07:15 N 6 16.09 Overcast OVC060 12 7 72% 76.02 0.0
02 06:55 N 9 16.09 Overcast OVC070 12 7 72% 76 0.0
02 06:35 NE 6 16.09 Overcast OVC070 12 7 72% 75.97 0.0
02 06:15 NE 6 16.09 Overcast OVC070 13 7 67% 75.97 0.0
02 05:55 N 7 16.09 Overcast OVC070 13 7 67% 75.97 0.0
02 05:35 NE 9 16.09 Mostly Cloudy BKN070 BKN110 13 7 67% 75.97 0.0
02 05:15 NE 9 16.09 Mostly Cloudy BKN070 BKN100 BKN120 13 8 72% 75.97 0.0
02 04:55 Calm 16.09 Overcast OVC070 12 10 88% 76 0.0
02 04:35 Calm 16.09 Mostly Cloudy SCT070 SCT080 BKN110 12 10 88% 76 0.0
02 04:15 Calm 16.09 Mostly Cloudy BKN110 12 10 88% 76 0.0
02 03:55 Calm 16.09 Overcast OVC110 12 10 88% 75.97 0.0
02 03:35 Calm 16.09 Partly Cloudy SCT120 12 10 88% 75.97 0.0
02 03:15 Calm 16.09 Fair CLR 12 10 88% 75.95 0.0
02 02:55 Calm 16.09 Partly Cloudy SCT070 SCT120 12 10 88% 75.95 0.0
02 02:35 N 6 16.09 Mostly Cloudy BKN070 12 10 88% 75.97 0.0
02 02:15 Calm 16.09 Mostly Cloudy BKN070 BKN120 13 10 82% 75.97 0.0
02 01:55 Calm 16.09 Partly Cloudy SCT070 SCT120 13 10 82% 75.97 0.0
02 01:35 Calm 16.09 Fair CLR 13 10 82% 76 0.0
02 01:15 Calm 16.09 Fair CLR 13 10 82% 76 0.0
02 00:55 Calm 16.09 Fair CLR 13 10 82% 76 0.0
02 00:35 Calm 16.09 Fair CLR 13 9 77% 76 0.0
02 00:15 Calm 16.09 Fair CLR 14 9 72% 76 0.0
01 23:55 Calm 16.09 Fair CLR 13 9 77% 76 0.0
01 23:35 E 6 16.09 Fair CLR 14 9 72% 76.02 0.0
01 23:15 Calm 16.09 Fair CLR 14 9 72% 76.02 0.0
01 22:55 E 6 16.09 Fair CLR 14 9 72% 76.05 0.0
01 22:35 E 6 16.09 Fair CLR 15 9 68% 76.02 0.0
01 22:15 SE 6 16.09 Fair CLR 14 9 72% 76.05 0.0
01 21:55 SE 7 16.09 Fair CLR 15 8 63% 76.02 0.0
01 21:35 SE 7 16.09 Fair CLR 15 8 63% 76 0.0
01 21:15 E 6 16.09 Fair CLR 15 8 63% 76.02 0.0
01 20:55 SE 6 16.09 Fair CLR 16 8 59% 76 0.0
01 20:35 SE 6 16.09 Fair CLR 16 8 59% 75.97 0.0
01 20:15 S 7 16.09 Fair CLR 16 8 59% 75.95 0.0
01 19:55 Calm 16.09 Fair CLR 16 7 55% 75.92 0.0
01 19:35 S 6 16.09 Fair CLR 17 7 52% 75.92 0.0
01 19:15 S 9 16.09 Fair CLR 17 6 49% 75.87 0.0
01 18:55 S 7 16.09 Fair CLR 17 6 49% 75.92 0.0
01 18:35 S 11 16.09 Fair CLR 18 6 46% 75.92 0.0
01 18:15 S 7 16.09 Fair CLR 18 6 46% 75.92 0.0
01 17:55 S 13 16.09 Fair CLR 18 6 46% 75.92 0.0
01 17:35 S 6 16.09 Fair CLR 18 6 46% 75.92 0.0
01 17:15 S 9 16.09 Fair CLR 18 6 46% 75.95 0.0
01 16:55 Calm 16.09 Fair CLR 18 5 43% 75.97 0.0
01 16:35 S 6 16.09 Fair CLR 18 5 43% 75.97 0.0
01 16:15 S 13 16.09 Fair CLR 18 5 43% 76 0.0
01 15:55 SW 7 16.09 Fair CLR 18 5 43% 76 0.0
01 15:35 S 9 16.09 Fair CLR 18 5 43% 76.02 0.0
01 15:15 S 9 16.09 Fair CLR 18 5 43% 76.05 0.0
01 14:55 S 11 16.09 Fair CLR 18 5 43% 76.07 0.0
01 14:35 Calm 16.09 Partly Cloudy SCT046 18 4 40% 76.1 0.0
01 14:15 SE 6 16.09 Partly Cloudy SCT047 17 4 42% 76.1 0.0
01 13:55 Calm 16.09 Mostly Cloudy BKN049 17 3 39% 76.1 0.0
01 13:35 S 6 16.09 Partly Cloudy SCT049 17 3 39% 76.12 0.0
01 13:15 S 15 16.09 Partly Cloudy SCT050 18 3 37% 76.15 0.0
01 12:55 S 11 16.09 Mostly Cloudy BKN050 18 3 37% 76.17 0.0
01 12:35 Calm 16.09 Partly Cloudy SCT050 17 2 37% 76.17 0.0
01 12:15 Calm 16.09 Mostly Cloudy BKN050 17 2 37% 76.2 0.0
01 11:55 Calm 16.09 Mostly Cloudy BKN055 16 1 36% 76.23 0.0
01 11:35 SE 7 16.09 Fair CLR 16 1 36% 76.23 0.0
01 11:15 E 7 16.09 Fair CLR 16 1 36% 76.25 0.0
01 10:55 E 11 16.09 Fair CLR 15 1 39% 76.25 0.0
01 10:35 N 6 16.09 Fair CLR 15 1 39% 76.25 0.0
01 10:15 E 9 16.09 Fair CLR 15 1 39% 76.23 0.0
01 09:55 E 13 16.09 Fair CLR 14 0 39% 76.25 0.0
01 09:35 NE 11 16.09 Fair CLR 13 1 44% 76.25 0.0
01 09:15 E 9 16.09 Fair CLR 13 1 44% 76.25 0.0
01 08:55 E 11 16.09 Fair CLR 13 1 44% 76.25 0.0
01 08:35 E 9 16.09 Fair CLR 12 1 47% 76.25 0.0
01 08:15 E 17 16.09 Fair CLR 12 1 47% 76.25 0.0
01 07:55 E 13 16.09 Fair CLR 11 1 50% 76.23 0.0
01 07:35 E 9 16.09 Fair CLR 11 2 54% 76.2 0.0
01 07:15 E 7 16.09 Fair CLR 11 2 54% 76.2 0.0
01 06:55 E 7 16.09 Partly Cloudy SCT070 11 2 54% 76.17 0.0
01 06:35 E 7 16.09 Overcast OVC070 11 2 54% 76.17 0.0
01 06:15 E 9 16.09 Overcast OVC070 11 2 54% 76.15 0.0
01 05:55 E 7 16.09 Overcast OVC060 12 2 51% 76.15 0.0
01 05:35 E 7 16.09 Overcast OVC060 12 2 51% 76.15 0.0
01 05:15 E 6 16.09 Overcast BKN060 OVC075 12 2 51% 76.12 0.0
01 04:55 E 6 16.09 Overcast OVC060 12 2 51% 76.1 0.0
01 04:35 E 6 16.09 Overcast OVC060 12 3 54% 76.1 0.0
01 04:15 Calm 16.09 Overcast OVC070 12 2 51% 76.07 0.0
01 03:55 E 7 16.09 Mostly Cloudy BKN070 12 2 51% 76.05 0.0
01 03:35 N 7 16.09 Mostly Cloudy BKN070 12 1 47% 76.05 0.0
01 03:15 N 7 16.09 Fair CLR 13 1 44% 76.05 0.0
01 02:55 NE 9 16.09 Mostly Cloudy SCT075 SCT085 BKN120 13 1 44% 76.05 0.0
01 02:35 N 6 16.09 Overcast BKN075 OVC085 13 1 44% 76.07 0.0
01 02:15 N 11 16.09 Mostly Cloudy BKN075 BKN085 14 1 41% 76.1 0.0
01 01:55 NE 11 16.09 Mostly Cloudy BKN075 BKN085 14 1 41% 76.1 0.0
01 01:35 Calm 16.09 Mostly Cloudy BKN075 BKN085 13 3 51% 76.07 0.0
01 01:15 Calm 16.09 Mostly Cloudy BKN075 BKN085 13 2 47% 76.07 0.0
01 00:55 Calm 16.09 Overcast OVC080 14 2 44% 76.05 0.0
01 00:35 Calm 16.09 Overcast OVC070 14 2 44% 76.07 0.0
01 00:15 NW 9 16.09 Mostly Cloudy BKN070 15 2 42% 76.07 0.0
30 23:55 Calm 16.09 Partly Cloudy SCT070 15 2 42% 76.05 0.0
30 23:35 N 11 16.09 Partly Cloudy SCT070 15 2 42% 76.05 0.0
30 23:15 N 6 16.09 Partly Cloudy SCT070 15 1 39% 76.05 0.0
30 22:55 N 6 16.09 Mostly Cloudy BKN070 15 1 39% 76.05 0.0
30 22:35 N 7 16.09 Partly Cloudy SCT070 16 1 36% 76.05 0.0
30 22:15 N 7 16.09 Fair CLR 16 1 36% 76.05 0.0
30 21:55 N 7 16.09 Fair CLR 16 0 34% 76.02 0.0
30 21:35 N 9 16.09 Fair CLR 16 1 36% 76 0.0
30 21:15 N 9 16.09 Fair CLR 16 1 36% 75.97 0.0
30 20:55 N 7 16.09 Fair CLR 16 1 36% 75.95 0.0
30 20:35 N 7 16.09 Fair CLR 17 1 34% 75.92 0.0
30 20:15 N 9 16.09 Fair CLR 18 1 32% 75.9 0.0
30 19:35 N 11 16.09 Partly Cloudy SCT080 19 1 30% 75.87 0.0
30 19:15 N 15 16.09 Fair CLR 20 2 30% 75.87 0.0
30 18:55 N 15 G 28 16.09 Fair CLR 20 2 30% 75.84 0.0
30 18:35 N 19 16.09 Fair CLR 21 2 29% 75.82 0.0
30 18:15 N 15 16.09 Fair CLR 21 2 29% 75.82 0.0
30 17:55 NE 17 G 26 16.09 Fair CLR 22 3 29% 75.79 0.0
30 17:35 N 13 16.09 Fair CLR 22 4 31% 75.74 0.0
30 17:15 N 15 16.09 Partly Cloudy SCT070 23 5 31% 75.77 0.0
30 16:55 NW 9 16.09 Partly Cloudy SCT070 24 6 31% 25 75.77 0.0
30 16:35 Calm 16.09 Fair CLR 24 2 24% 25 75.74 0.0
30 16:15 N 15 G 30 16.09 Fair CLR 24 7 34% 25 75.74 0.0
30 15:55 NE 13 16.09 Fair CLR 23 7 36% 75.74 0.0
30 15:35 NE 20 G 26 16.09 Fair CLR 25 7 32% 25 75.77 0.0
30 15:15 W 17 16.09 Fair CLR 24 3 25% 25 75.74 0.0
30 14:55 SW 7 16.09 Partly Cloudy SCT060 25 5 28% 25 75.77 0.0
30 14:35 SE 6 16.09 Partly Cloudy SCT070 23 9 41% 75.79 0.0
30 14:15 Calm 16.09 Partly Cloudy SCT065 SCT080 23 8 38% 75.79 0.0
30 13:55 Calm 16.09 Mostly Cloudy BKN065 BKN080 22 8 41% 75.82 0.0
30 13:35 W 7 16.09 Overcast SCT055 OVC065 22 8 41% 75.82 0.0
30 13:15 S 6 16.09 Mostly Cloudy SCT055 BKN065 22 8 41% 75.84 0.0
30 12:55 Calm 16.09 Mostly Cloudy BKN065 BKN075 22 8 41% 75.84 0.0
30 12:35 NW 6 16.09 Fair CLR 23 8 38% 75.84 0.0
30 12:15 W 7 16.09 Partly Cloudy SCT045 22 8 41% 75.87 0.0
30 11:55 Calm 16.09 Mostly Cloudy BKN045 22 8 41% 75.87 0.0
30 11:35 SE 6 16.09 Partly Cloudy SCT039 21 10 50% 75.87 0.0
30 11:15 Calm 16.09 Mostly Cloudy BKN039 20 10 53% 75.87 0.0
30 10:55 Calm 16.09 Partly Cloudy SCT037 20 10 53% 75.87 0.0
30 10:35 E 7 16.09 Partly Cloudy SCT110 19 10 56% 75.87 0.0
30 10:15 NE 9 16.09 Mostly Cloudy BKN110 19 9 52% 75.87 0.0
30 09:55 NE 11 16.09 Mostly Cloudy BKN050 BKN070 18 10 60% 75.9 0.0
30 09:35 NE 6 16.09 Overcast OVC050 17 10 64% 75.92 0.0
30 09:15 N 7 16.09 Overcast BKN050 OVC100 16 10 68% 75.92 0.0
30 08:55 NE 6 16.09 Overcast BKN050 BKN100 OVC110 15 10 72% 75.92 0.0
30 08:35 N 6 16.09 Overcast SCT050 SCT070 OVC110 15 11 77% 75.92 0.0
30 08:15 E 6 16.09 Overcast SCT050 SCT075 OVC100 15 10 72% 75.9 0.0
30 07:55 Calm 16.09 Mostly Cloudy BKN110 15 10 72% 75.87 0.0
30 07:35 S 6 16.09 Partly Cloudy SCT110 15 11 77% 75.92 0.0
30 07:15 Calm 16.09 Overcast SCT080 OVC110 15 11 77% 75.87 0.0
30 06:55 SW 9 16.09 Overcast OVC110 15 11 77% 75.9 0.0
30 06:35 Calm 16.09 Mostly Cloudy BKN110 16 10 68% 75.79 0.0
30 06:15 N 6 16.09 Partly Cloudy SCT120 16 10 68% 75.77 0.0
30 05:55 Calm 16.09 Fair CLR 16 10 68% 75.77 0.0
30 05:35 NE 6 16.09 Fair CLR 16 11 72% 75.74 0.0
30 05:15 N 13 16.09 Fair CLR 16 11 72% 75.74 0.0
30 04:55 Calm 16.09 Fair CLR 14 13 94% 75.77 0.0
30 04:35 Calm 16.09 Fair CLR 16 12 77% 75.74 0.0
30 04:15 Calm 16.09 Fair CLR 15 13 88% 75.77 0.0
30 03:55 S 6 16.09 Fair CLR 15 13 88% 75.74 0.0
30 03:35 Calm 16.09 Fair CLR 16 13 83% 75.72 0.0
30 03:15 N 9 16.09 Fair CLR 16 12 77% 75.69 0.0
30 02:55 Calm 16.09 Fair CLR 17 12 73% 75.69 0.0
30 02:35 Calm 16.09 Fair CLR 17 12 73% 75.69 0.0
30 02:15 Calm 16.09 Fair CLR 17 12 73% 75.72 0.0
30 01:55 SE 6 16.09 Fair CLR 17 12 73% 75.74 0.0
30 01:35 Calm 16.09 Fair CLR 18 12 68% 75.77 0.0
30 01:15 Calm 16.09 Fair CLR 18 12 68% 75.79 0.0
30 00:50 Calm 16.09 Fair CLR 18 12 68% 75.82 0.0
30 00:35 Calm 16.09 Fair CLR 18 12 68% 75.82 0.0
30 00:15 W 7 16.09 Fair CLR 19 12 64% 75.82 0.0
29 23:55 W 6 16.09 Fair CLR 20 12 60% 75.82 0.0
29 23:35 NW 11 16.09 Fair CLR 20 12 60% 75.82 0.0
29 23:15 NW 9 16.09 Partly Cloudy SCT075 20 12 60% 75.82 0.0
29 22:55 NW 9 16.09 Mostly Cloudy BKN075 21 13 60% 75.82 0.0
29 22:35 NW 11 16.09 Mostly Cloudy BKN080 20 13 64% 75.82 0.0
29 22:15 NW 9 16.09 Partly Cloudy SCT080 SCT110 21 12 57% 75.82 0.0
29 21:55 NW 7 16.09 Fair CLR 21 12 57% 75.82 0.0
29 21:35 N 7 16.09 Fair CLR 22 12 53% 75.79 0.0
29 21:15 NW 6 16.09 Partly Cloudy SCT090 22 13 57% 75.77 0.0
29 20:55 NW 9 16.09 Fair CLR 22 12 53% 75.74 0.0
29 20:35 NW 17 G 26 16.09 Fair CLR 23 13 53% 75.69 0.0
29 20:15 Calm 16.09 Fair CLR 23 13 53% 75.67 0.0
29 19:55 NW 11 16.09 Partly Cloudy SCT110 25 13 47% 26 75.67 0.0
29 19:35 NW 7 16.09 Fair CLR 25 15 54% 26 75.64 0.0
29 19:15 W 6 16.09 Fair CLR 26 15 51% 27 75.64 0.0
29 18:55 Calm 16.09 Fair CLR 26 15 51% 27 75.64 0.0
Date Time (edt) Wind (kph) Vis. (km) Weather Sky Cond. Air Dwpt Max. Min. Relative Humidity Wind Chill (°C) Heat Index (°C) altimeter (cm) sea level (mb) 1 hr 3 hr 6 hr
6 hour
Temperature (ºC) Pressure Precipitation (cm)